createdAt,value
2023-02-28T00:00:13.625Z,12.60
2023-02-28T00:03:02.494Z,12.90
2023-02-28T00:05:32.643Z,12.10
2023-02-28T00:08:01.457Z,11.20
2023-02-28T00:10:32.251Z,9.50
2023-02-28T00:13:04.468Z,11.80
2023-02-28T00:15:34.473Z,15.90
2023-02-28T00:18:04.589Z,18.30
2023-02-28T00:20:33.560Z,14.80
2023-02-28T00:23:03.991Z,15.90
2023-02-28T00:25:33.661Z,11.70
2023-02-28T00:28:02.793Z,11.10
2023-02-28T00:30:32.980Z,10.20
2023-02-28T00:33:02.663Z,10.00
2023-02-28T00:35:31.646Z,10.80
2023-02-28T00:38:00.537Z,9.90
2023-02-28T00:40:31.038Z,10.30
2023-02-28T00:42:59.984Z,10.70
2023-02-28T00:45:29.470Z,12.10
2023-02-28T00:48:00.962Z,9.20
2023-02-28T00:50:29.966Z,10.70
2023-02-28T00:53:01.751Z,10.50
2023-02-28T00:55:30.622Z,8.60
2023-02-28T00:58:00.884Z,7.00
2023-02-28T01:00:31.302Z,8.70
2023-02-28T01:03:00.385Z,9.50
2023-02-28T01:05:29.605Z,9.60
2023-02-28T01:07:59.612Z,8.50
2023-02-28T01:10:32.595Z,9.10
2023-02-28T01:13:03.642Z,10.80
2023-02-28T01:15:35.010Z,9.30
2023-02-28T01:18:05.027Z,11.50
2023-02-28T01:20:34.711Z,10.80
2023-02-28T01:23:04.732Z,9.20
2023-02-28T01:25:38.926Z,11.10
2023-02-28T01:28:12.638Z,7.60
2023-02-28T01:30:44.063Z,9.10
2023-02-28T01:33:27.723Z,10.10
2023-02-28T01:36:30.314Z,9.80
2023-02-28T01:39:03.931Z,10.40
2023-02-28T01:41:39.877Z,9.20
2023-02-28T01:44:49.680Z,8.80
2023-02-28T01:47:20.934Z,10.10
2023-02-28T01:50:21.285Z,7.60
2023-02-28T01:53:21.516Z,9.60
2023-02-28T01:56:13.759Z,7.30
2023-02-28T01:58:45.180Z,8.00
2023-02-28T02:01:53.925Z,8.50
2023-02-28T02:04:53.917Z,8.60
2023-02-28T02:07:27.413Z,10.80
2023-02-28T02:10:16.374Z,8.90
2023-02-28T02:12:58.174Z,6.80
2023-02-28T02:15:50.541Z,10.50
2023-02-28T02:18:37.738Z,8.20
2023-02-28T02:21:28.086Z,6.70
2023-02-28T02:24:38.025Z,8.20
2023-02-28T02:27:57.405Z,8.10
2023-02-28T02:30:58.059Z,6.90
2023-02-28T02:33:48.981Z,7.90
2023-02-28T02:36:30.670Z,7.70
2023-02-28T02:39:14.023Z,7.60
2023-02-28T02:41:59.571Z,9.90
2023-02-28T02:44:46.239Z,8.20
2023-02-28T02:47:22.904Z,9.60
2023-02-28T02:49:58.698Z,8.60
2023-02-28T02:52:48.024Z,9.60
2023-02-28T02:55:19.750Z,9.80
2023-02-28T02:57:53.804Z,7.40
2023-02-28T03:00:31.108Z,8.30
2023-02-28T03:03:04.598Z,10.90
2023-02-28T03:05:43.339Z,10.80
2023-02-28T03:08:12.681Z,9.80
2023-02-28T03:10:49.664Z,8.50
2023-02-28T03:13:50.108Z,6.60
2023-02-28T03:16:33.260Z,7.30
2023-02-28T03:19:30.615Z,8.40
2023-02-28T03:22:34.537Z,8.30
2023-02-28T03:25:22.020Z,8.70
2023-02-28T03:28:04.234Z,11.60
2023-02-28T03:30:59.387Z,8.50
2023-02-28T03:33:34.925Z,6.30
2023-02-28T03:36:14.758Z,7.80
2023-02-28T03:38:50.604Z,7.40
2023-02-28T03:41:24.580Z,8.20
2023-02-28T03:44:17.936Z,7.90
2023-02-28T03:46:54.866Z,10.00
2023-02-28T03:49:32.634Z,8.80
2023-02-28T03:52:05.362Z,10.50
2023-02-28T03:54:39.564Z,7.10
2023-02-28T03:57:17.348Z,8.30
2023-02-28T03:59:52.264Z,7.00
2023-02-28T04:02:23.756Z,7.30
2023-02-28T04:04:52.451Z,7.30
2023-02-28T04:07:25.141Z,7.70
2023-02-28T04:09:54.197Z,10.30
2023-02-28T04:12:24.378Z,8.00
2023-02-28T04:14:53.075Z,10.40
2023-02-28T04:17:21.775Z,9.20
2023-02-28T04:19:51.572Z,9.10
2023-02-28T04:22:21.500Z,11.00
2023-02-28T04:24:50.206Z,14.00
2023-02-28T04:27:19.014Z,18.10
2023-02-28T04:29:47.601Z,9.80
2023-02-28T04:32:16.229Z,10.50
2023-02-28T04:34:44.851Z,12.50
2023-02-28T04:37:14.412Z,11.20
2023-02-28T04:39:46.012Z,9.60
2023-02-28T04:42:16.496Z,7.20
2023-02-28T04:44:45.113Z,8.70
2023-02-28T04:47:13.839Z,11.20
2023-02-28T04:49:43.383Z,9.50
2023-02-28T04:52:11.916Z,7.70
2023-02-28T04:54:40.739Z,9.30
2023-02-28T04:57:09.584Z,6.60
2023-02-28T04:59:39.049Z,6.80
2023-02-28T05:02:08.313Z,7.80
2023-02-28T05:04:37.948Z,8.50
2023-02-28T05:07:06.735Z,6.90
2023-02-28T05:09:35.839Z,7.30
2023-02-28T05:12:04.517Z,6.90
2023-02-28T05:14:33.066Z,6.90
2023-02-28T05:17:01.901Z,8.60
2023-02-28T05:19:31.871Z,7.30
2023-02-28T05:22:01.030Z,8.10
2023-02-28T05:24:29.530Z,9.50
2023-02-28T05:26:58.536Z,7.50
2023-02-28T05:29:27.022Z,9.40
2023-02-28T05:31:55.656Z,7.40
2023-02-28T05:34:24.196Z,7.90
2023-02-28T05:36:52.723Z,5.00
2023-02-28T05:39:21.357Z,8.90
2023-02-28T05:41:49.881Z,11.00
2023-02-28T05:44:18.550Z,8.60
2023-02-28T05:46:47.119Z,8.00
2023-02-28T05:49:15.568Z,6.10
2023-02-28T05:51:44.020Z,7.50
2023-02-28T05:54:13.949Z,8.00
2023-02-28T05:56:45.261Z,6.70
2023-02-28T05:59:14.465Z,7.10
2023-02-28T06:01:49.501Z,7.80
2023-02-28T06:04:34.351Z,7.40
2023-02-28T06:07:02.978Z,8.70
2023-02-28T06:09:31.494Z,7.40
2023-02-28T06:12:01.557Z,9.80
2023-02-28T06:14:30.128Z,9.60
2023-02-28T06:16:59.904Z,9.70
2023-02-28T06:19:28.603Z,6.70
2023-02-28T06:21:58.176Z,8.80
2023-02-28T06:24:31.552Z,8.30
2023-02-28T06:27:06.338Z,7.30
2023-02-28T06:29:40.943Z,8.10
2023-02-28T06:32:09.717Z,9.20
2023-02-28T06:34:38.214Z,9.80
2023-02-28T06:37:06.714Z,7.00
2023-02-28T06:39:35.672Z,8.20
2023-02-28T06:42:04.627Z,9.60
2023-02-28T06:44:36.589Z,7.40
2023-02-28T06:47:07.309Z,8.40
2023-02-28T06:49:37.422Z,9.80
2023-02-28T06:52:06.335Z,8.90
2023-02-28T06:54:34.832Z,7.30
2023-02-28T06:57:03.396Z,8.70
2023-02-28T06:59:32.312Z,12.70
2023-02-28T07:02:01.570Z,10.30
2023-02-28T07:04:30.161Z,11.50
2023-02-28T07:06:58.916Z,11.60
2023-02-28T07:09:31.184Z,12.20
2023-02-28T07:12:02.352Z,13.70
2023-02-28T07:14:31.688Z,13.60
2023-02-28T07:17:00.908Z,11.50
2023-02-28T07:19:29.619Z,9.40
2023-02-28T07:21:58.286Z,10.30
2023-02-28T07:24:29.597Z,11.30
2023-02-28T07:26:58.780Z,10.40
2023-02-28T07:29:27.995Z,13.00
2023-02-28T07:31:57.572Z,13.60
2023-02-28T07:34:27.296Z,11.80
2023-02-28T07:36:56.324Z,11.50
2023-02-28T07:39:25.241Z,13.00
2023-02-28T07:41:54.499Z,12.90
2023-02-28T07:44:28.258Z,11.50
2023-02-28T07:46:58.054Z,10.00
2023-02-28T07:49:26.815Z,12.60
2023-02-28T07:51:55.528Z,12.80
2023-02-28T07:54:25.028Z,11.60
2023-02-28T07:56:53.718Z,11.90
2023-02-28T07:59:22.408Z,11.20
2023-02-28T08:01:52.657Z,11.40
2023-02-28T08:04:26.125Z,9.90
2023-02-28T08:06:57.350Z,10.30
2023-02-28T08:09:27.486Z,9.10
2023-02-28T08:11:57.241Z,8.30
2023-02-28T08:14:27.897Z,11.50
2023-02-28T08:17:00.126Z,8.20
2023-02-28T08:19:31.259Z,14.40
2023-02-28T08:22:04.963Z,10.20
2023-02-28T08:24:44.972Z,11.40
2023-02-28T08:27:14.380Z,10.20
2023-02-28T08:29:44.240Z,10.50
2023-02-28T08:32:29.323Z,10.20
2023-02-28T08:35:34.101Z,9.00
2023-02-28T08:39:04.002Z,9.50
2023-02-28T08:46:37.619Z,9.40
2023-02-28T08:50:30.334Z,10.40
2023-02-28T08:53:21.129Z,10.70
2023-02-28T08:56:14.872Z,9.30
2023-02-28T08:58:45.587Z,8.50
2023-02-28T09:01:20.962Z,7.60
2023-02-28T09:03:53.099Z,9.70
2023-02-28T09:06:47.793Z,9.50
2023-02-28T09:09:24.016Z,7.20
2023-02-28T09:12:02.107Z,7.30
2023-02-28T09:14:36.351Z,8.20
2023-02-28T09:17:11.875Z,8.10
2023-02-28T09:19:50.003Z,7.40
2023-02-28T09:22:30.238Z,10.30
2023-02-28T09:25:09.028Z,7.00
2023-02-28T09:28:08.457Z,4.20
2023-02-28T09:30:57.952Z,6.30
2023-02-28T09:34:00.942Z,7.10
2023-02-28T09:39:56.820Z,7.80
2023-02-28T09:43:10.102Z,6.30
2023-02-28T16:39:12.764Z,11.20
2023-02-28T16:39:36.140Z,23.40
2023-02-28T16:42:56.165Z,17.50
2023-02-28T16:46:07.944Z,18.60
2023-02-28T16:48:59.389Z,16.60
2023-02-28T16:51:44.552Z,17.40
2023-02-28T16:54:21.112Z,15.10
2023-02-28T16:56:57.649Z,14.80
2023-02-28T16:59:30.532Z,13.10
2023-02-28T17:02:02.467Z,12.80
2023-02-28T17:04:36.537Z,18.40
2023-02-28T17:07:20.508Z,19.00
2023-02-28T17:09:52.487Z,21.40
2023-02-28T17:12:25.187Z,25.60
2023-02-28T17:14:58.840Z,18.80
2023-02-28T17:17:34.057Z,61.10
2023-02-28T17:20:11.678Z,80.90
2023-02-28T17:22:43.683Z,103.60
2023-02-28T17:25:16.460Z,74.10
2023-02-28T17:27:51.524Z,77.80
2023-02-28T17:30:26.094Z,68.70
2023-02-28T17:33:09.749Z,59.70
2023-02-28T17:35:40.419Z,66.00
2023-02-28T17:38:19.642Z,54.80
2023-02-28T17:40:51.285Z,40.80
2023-02-28T17:43:21.045Z,32.80
2023-02-28T17:45:50.349Z,22.00
2023-02-28T17:48:20.065Z,18.40
2023-02-28T17:50:52.505Z,13.50
2023-02-28T17:53:24.675Z,16.70
2023-02-28T17:55:54.706Z,20.60
2023-02-28T17:58:23.983Z,20.50
2023-02-28T18:00:55.568Z,19.00
2023-02-28T18:03:26.498Z,21.40
2023-02-28T18:05:56.738Z,24.20
2023-02-28T18:08:27.260Z,21.70
2023-02-28T18:10:58.134Z,24.20
2023-02-28T18:13:28.989Z,26.00
2023-02-28T18:15:59.315Z,25.10
2023-02-28T18:18:31.032Z,23.50
2023-02-28T18:21:02.738Z,17.80
2023-02-28T18:23:32.618Z,20.60
2023-02-28T18:26:07.126Z,21.40
2023-02-28T18:28:38.127Z,18.90
2023-02-28T18:31:10.151Z,20.20
2023-02-28T18:33:40.129Z,20.90
2023-02-28T18:36:11.371Z,24.00
2023-02-28T18:38:46.704Z,25.80
2023-02-28T18:41:21.836Z,15.50
2023-02-28T18:43:55.813Z,17.50
2023-02-28T18:46:25.296Z,12.50
2023-02-28T18:48:58.521Z,45.40
2023-02-28T18:51:47.758Z,57.40
2023-02-28T18:54:19.563Z,19.60
2023-02-28T18:57:12.902Z,23.20
2023-02-28T18:59:45.256Z,22.10
2023-02-28T19:02:23.388Z,19.50
2023-02-28T19:04:53.590Z,26.10
2023-02-28T19:07:44.205Z,18.10
2023-02-28T19:10:19.476Z,13.30
2023-02-28T19:12:50.539Z,11.50
2023-02-28T19:15:22.349Z,14.20
2023-02-28T19:17:56.027Z,15.50
2023-02-28T19:20:25.993Z,20.90
2023-02-28T19:22:55.925Z,17.50
2023-02-28T19:25:27.580Z,17.80
2023-02-28T19:28:03.936Z,12.50
2023-02-28T19:30:36.476Z,14.60
2023-02-28T19:33:08.466Z,21.20
2023-02-28T19:35:37.269Z,15.20
2023-02-28T19:38:06.077Z,26.80
2023-02-28T19:40:35.316Z,30.40
2023-02-28T19:43:05.430Z,33.60
2023-02-28T19:45:37.174Z,33.50
2023-02-28T19:48:06.371Z,28.10
2023-02-28T19:50:37.849Z,35.20
2023-02-28T19:53:14.306Z,41.40
2023-02-28T19:55:43.489Z,34.30
2023-02-28T19:58:13.064Z,43.70
2023-02-28T20:00:42.999Z,20.30
2023-02-28T20:03:12.932Z,16.10
2023-02-28T20:05:42.943Z,26.60
2023-02-28T20:08:14.042Z,18.20
2023-02-28T20:10:43.792Z,14.60
2023-02-28T20:13:16.664Z,13.20
2023-02-28T20:15:45.891Z,14.10
2023-02-28T20:18:16.620Z,13.30
2023-02-28T20:20:45.399Z,10.00
2023-02-28T20:23:19.383Z,11.80
2023-02-28T20:25:48.072Z,14.10
2023-02-28T20:28:17.074Z,12.50
2023-02-28T20:30:50.508Z,16.80
2023-02-28T20:33:19.662Z,13.80
2023-02-28T20:35:49.869Z,12.30
2023-02-28T20:38:19.360Z,14.80
2023-02-28T20:40:48.029Z,12.70
2023-02-28T20:43:16.705Z,15.00
2023-02-28T20:45:53.577Z,15.00
2023-02-28T20:48:23.057Z,13.20
2023-02-28T20:50:54.536Z,11.70
2023-02-28T20:53:25.974Z,14.10
2023-02-28T20:55:58.433Z,57.00
2023-02-28T20:58:31.298Z,28.50
2023-02-28T21:01:18.775Z,17.30
2023-02-28T21:03:51.746Z,10.70
2023-02-28T21:06:22.221Z,8.00
2023-02-28T21:08:51.398Z,10.70
2023-02-28T21:11:25.986Z,6.30
2023-02-28T21:14:03.851Z,7.40
2023-02-28T21:16:33.297Z,8.10
2023-02-28T21:19:04.831Z,15.80
2023-02-28T21:21:39.726Z,15.50
2023-02-28T21:24:08.576Z,10.00
2023-02-28T21:26:40.367Z,7.90
2023-02-28T21:29:09.270Z,9.50
2023-02-28T21:31:38.521Z,7.80
2023-02-28T21:34:09.991Z,7.00
2023-02-28T21:36:42.363Z,6.10
2023-02-28T21:39:20.532Z,6.90
2023-02-28T21:41:49.853Z,12.30
2023-02-28T21:44:19.153Z,9.00
2023-02-28T21:46:51.278Z,7.70
2023-02-28T21:49:19.924Z,7.80
2023-02-28T21:51:49.025Z,9.90
2023-02-28T21:54:17.706Z,13.20
2023-02-28T21:56:46.446Z,11.20
2023-02-28T21:59:15.983Z,12.00
2023-02-28T22:01:45.664Z,12.20
2023-02-28T22:04:22.698Z,33.20
2023-02-28T22:06:55.027Z,25.90
2023-02-28T22:09:23.895Z,18.00
2023-02-28T22:11:52.531Z,16.60
2023-02-28T22:14:21.668Z,11.70
2023-02-28T22:16:54.722Z,11.50
2023-02-28T22:19:24.555Z,14.90
2023-02-28T22:21:54.080Z,11.10
2023-02-28T22:24:24.828Z,10.90
2023-02-28T22:26:54.183Z,6.10
2023-02-28T22:29:23.017Z,5.10
2023-02-28T22:31:51.953Z,6.70
2023-02-28T22:34:20.697Z,4.90
2023-02-28T22:36:49.212Z,4.50
2023-02-28T22:39:17.851Z,6.00
2023-02-28T22:41:46.344Z,6.80
2023-02-28T22:44:14.807Z,7.70
2023-02-28T22:46:43.463Z,7.30
2023-02-28T22:49:12.005Z,8.70
2023-02-28T22:51:40.444Z,8.10
2023-02-28T22:54:09.738Z,7.60
2023-02-28T22:56:38.733Z,8.50
2023-02-28T22:59:07.280Z,7.90
2023-02-28T23:01:36.063Z,7.10
2023-02-28T23:04:04.938Z,8.60
2023-02-28T23:06:38.027Z,4.90
2023-02-28T23:09:08.885Z,7.90
2023-02-28T23:11:40.961Z,10.30
2023-02-28T23:14:12.968Z,7.80
2023-02-28T23:17:01.333Z,9.80
2023-02-28T23:19:31.480Z,8.50
2023-02-28T23:22:01.465Z,10.20
2023-02-28T23:24:32.730Z,8.50
2023-02-28T23:27:04.570Z,11.30
2023-02-28T23:29:34.267Z,9.20
2023-02-28T23:32:03.703Z,8.80
2023-02-28T23:34:32.422Z,9.00
2023-02-28T23:37:02.508Z,10.50
2023-02-28T23:39:31.922Z,13.80
2023-02-28T23:42:02.086Z,9.50
2023-02-28T23:44:31.076Z,12.60
2023-02-28T23:46:59.780Z,13.00
2023-02-28T23:49:28.637Z,10.20
2023-02-28T23:51:57.859Z,11.50
2023-02-28T23:54:26.308Z,14.60
2023-02-28T23:56:54.736Z,13.60
2023-02-28T23:59:23.393Z,12.10
